createdAt,value
2023-05-22T00:00:12.081Z,52.94
2023-05-22T00:01:11.100Z,52.95
2023-05-22T00:02:11.115Z,52.90
2023-05-22T00:03:11.144Z,52.86
2023-05-22T00:04:11.076Z,52.88
2023-05-22T00:05:13.132Z,52.90
2023-05-22T00:06:13.092Z,52.94
2023-05-22T00:07:11.085Z,53.01
2023-05-22T00:08:11.084Z,53.05
2023-05-22T00:09:11.089Z,53.18
2023-05-22T00:10:11.078Z,53.18
2023-05-22T00:11:11.084Z,53.21
2023-05-22T00:12:11.087Z,53.27
2023-05-22T00:13:11.079Z,53.27
2023-05-22T00:14:11.081Z,53.25
2023-05-22T00:15:11.078Z,53.32
2023-05-22T00:16:11.084Z,53.37
2023-05-22T00:17:11.169Z,53.42
2023-05-22T00:18:11.102Z,53.47
2023-05-22T00:19:11.127Z,53.68
2023-05-22T00:20:14.089Z,53.70
2023-05-22T00:21:11.094Z,53.76
2023-05-22T00:22:11.079Z,53.79
2023-05-22T00:23:14.651Z,53.71
2023-05-22T00:24:11.090Z,53.73
2023-05-22T00:25:11.079Z,53.68
2023-05-22T00:26:11.097Z,53.70
2023-05-22T00:27:11.079Z,53.70
2023-05-22T00:28:11.077Z,53.64
2023-05-22T00:29:11.080Z,53.70
2023-05-22T00:30:11.096Z,53.65
2023-05-22T00:31:11.080Z,53.66
2023-05-22T00:32:11.102Z,53.61
2023-05-22T00:33:11.088Z,53.61
2023-05-22T00:34:11.107Z,53.58
2023-05-22T00:35:11.123Z,53.55
2023-05-22T00:36:11.086Z,53.55
2023-05-22T00:37:11.084Z,53.68
2023-05-22T00:38:15.085Z,53.69
2023-05-22T00:39:11.086Z,53.68
2023-05-22T00:40:11.084Z,53.63
2023-05-22T00:41:11.085Z,53.54
2023-05-22T00:42:11.099Z,53.58
2023-05-22T00:43:12.083Z,53.62
2023-05-22T00:44:11.087Z,53.53
2023-05-22T00:45:11.104Z,53.59
2023-05-22T00:46:11.096Z,53.47
2023-05-22T00:47:11.091Z,53.46
2023-05-22T00:48:12.096Z,53.52
2023-05-22T00:49:11.096Z,53.49
2023-05-22T00:50:11.093Z,53.48
2023-05-22T00:51:11.097Z,53.51
2023-05-22T00:52:11.090Z,53.54
2023-05-22T00:53:11.090Z,53.60
2023-05-22T00:54:11.096Z,53.67
2023-05-22T00:55:11.094Z,53.66
2023-05-22T00:56:11.096Z,53.68
2023-05-22T00:57:11.096Z,53.76
2023-05-22T00:58:15.087Z,53.71
2023-05-22T00:59:11.115Z,53.76
2023-05-22T01:00:11.096Z,53.76
2023-05-22T01:01:11.065Z,53.79
2023-05-22T01:02:11.112Z,53.81
2023-05-22T01:03:13.168Z,53.82
2023-05-22T01:04:13.107Z,53.82
2023-05-22T01:05:11.071Z,53.83
2023-05-22T01:06:14.068Z,53.86
2023-05-22T01:07:11.064Z,53.86
2023-05-22T01:08:11.070Z,53.87
2023-05-22T01:09:11.062Z,53.85
2023-05-22T01:10:11.064Z,53.89
2023-05-22T01:11:20.065Z,53.83
2023-05-22T01:12:19.069Z,53.87
2023-05-22T01:13:19.064Z,53.94
2023-05-22T01:14:20.076Z,54.00
2023-05-22T01:15:19.069Z,54.03
2023-05-22T01:16:19.184Z,54.15
2023-05-22T01:17:20.069Z,54.19
2023-05-22T01:18:19.073Z,54.21
2023-05-22T01:19:19.087Z,54.13
2023-05-22T01:20:17.061Z,54.19
2023-05-22T01:21:19.080Z,54.26
2023-05-22T01:22:19.066Z,54.41
2023-05-22T01:23:19.066Z,54.35
2023-05-22T01:24:19.064Z,54.39
2023-05-22T01:25:19.061Z,54.51
2023-05-22T01:26:22.084Z,54.62
2023-05-22T01:27:19.066Z,54.66
2023-05-22T01:28:21.067Z,54.68
2023-05-22T01:29:19.064Z,54.72
2023-05-22T01:30:19.065Z,55.05
2023-05-22T01:31:16.074Z,55.12
2023-05-22T01:32:12.074Z,55.32
2023-05-22T01:33:11.129Z,55.31
2023-05-22T01:34:12.061Z,55.39
2023-05-22T01:35:12.083Z,55.40
2023-05-22T01:36:11.065Z,55.41
2023-05-22T01:37:11.062Z,55.23
2023-05-22T01:38:11.076Z,55.19
2023-05-22T01:39:11.066Z,55.12
2023-05-22T01:40:11.077Z,55.19
2023-05-22T01:41:11.085Z,55.21
2023-05-22T01:42:11.062Z,55.10
2023-05-22T01:43:11.070Z,55.00
2023-05-22T01:44:11.083Z,55.04
2023-05-22T01:45:11.077Z,55.04
2023-05-22T01:46:11.134Z,54.83
2023-05-22T01:47:12.071Z,54.81
2023-05-22T01:48:11.100Z,54.86
2023-05-22T01:49:11.068Z,54.93
2023-05-22T01:50:11.086Z,54.75
2023-05-22T01:51:19.074Z,54.62
2023-05-22T01:52:16.073Z,54.65
2023-05-22T01:53:18.079Z,54.60
2023-05-22T01:54:19.068Z,54.59
2023-05-22T01:55:15.080Z,54.61
2023-05-22T01:56:16.072Z,54.58
2023-05-22T01:57:18.079Z,54.44
2023-05-22T01:58:19.072Z,54.47
2023-05-22T01:59:21.097Z,54.46
2023-05-22T02:00:14.093Z,54.37
2023-05-22T02:01:11.157Z,54.42
2023-05-22T02:02:13.113Z,54.27
2023-05-22T02:03:16.263Z,54.24
2023-05-22T02:04:11.077Z,54.23
2023-05-22T02:05:13.082Z,54.28
2023-05-22T02:06:12.071Z,54.27
2023-05-22T02:07:12.622Z,54.39
2023-05-22T02:08:11.074Z,54.43
2023-05-22T02:09:11.070Z,54.45
2023-05-22T02:10:11.075Z,54.51
2023-05-22T02:11:11.103Z,54.63
2023-05-22T02:12:11.073Z,54.72
2023-05-22T02:13:11.074Z,54.86
2023-05-22T02:14:11.080Z,54.86
2023-05-22T02:15:11.067Z,54.96
2023-05-22T02:16:11.168Z,54.96
2023-05-22T02:17:11.073Z,55.03
2023-05-22T02:18:12.117Z,55.04
2023-05-22T02:19:11.150Z,55.07
2023-05-22T02:20:14.077Z,55.11
2023-05-22T02:21:12.074Z,55.12
2023-05-22T02:22:11.075Z,55.17
2023-05-22T02:23:11.083Z,55.20
2023-05-22T02:24:11.076Z,55.21
2023-05-22T02:25:15.142Z,55.42
2023-05-22T02:26:11.073Z,55.41
2023-05-22T02:27:11.075Z,55.36
2023-05-22T02:28:11.075Z,55.38
2023-05-22T02:29:11.075Z,55.31
2023-05-22T02:30:11.084Z,55.33
2023-05-22T02:31:11.102Z,55.28
2023-05-22T02:32:11.077Z,55.29
2023-05-22T02:33:11.150Z,55.22
2023-05-22T02:34:11.077Z,55.21
2023-05-22T02:35:11.091Z,55.27
2023-05-22T02:36:11.095Z,55.19
2023-05-22T02:37:11.076Z,55.22
2023-05-22T02:38:11.078Z,55.25
2023-05-22T02:39:11.074Z,55.20
2023-05-22T02:40:11.078Z,55.20
2023-05-22T02:41:11.079Z,55.19
2023-05-22T02:42:11.076Z,55.18
2023-05-22T02:43:11.081Z,55.14
2023-05-22T02:44:11.079Z,55.14
2023-05-22T02:45:11.076Z,55.32
2023-05-22T02:46:11.099Z,55.37
2023-05-22T02:47:11.085Z,55.33
2023-05-22T02:48:11.127Z,55.45
2023-05-22T02:49:11.093Z,55.47
2023-05-22T02:50:11.088Z,55.55
2023-05-22T02:51:11.077Z,55.47
2023-05-22T02:52:11.075Z,55.45
2023-05-22T02:53:11.091Z,55.53
2023-05-22T02:54:11.075Z,55.45
2023-05-22T02:55:11.089Z,55.41
2023-05-22T02:56:11.103Z,55.36
2023-05-22T02:57:11.086Z,55.31
2023-05-22T02:58:11.085Z,55.29
2023-05-22T02:59:11.085Z,55.33
2023-05-22T03:00:15.075Z,55.26
2023-05-22T03:01:11.140Z,55.20
2023-05-22T03:02:11.146Z,55.21
2023-05-22T03:03:11.209Z,55.26
2023-05-22T03:04:12.119Z,55.18
2023-05-22T03:05:11.086Z,55.04
2023-05-22T03:06:11.091Z,54.97
2023-05-22T03:07:11.076Z,55.11
2023-05-22T03:08:11.088Z,55.14
2023-05-22T03:09:11.074Z,55.17
2023-05-22T03:10:11.073Z,55.19
2023-05-22T03:11:11.094Z,55.23
2023-05-22T03:12:11.083Z,55.22
2023-05-22T03:13:11.081Z,55.40
2023-05-22T03:14:11.086Z,55.46
2023-05-22T03:15:11.139Z,55.42
2023-05-22T03:16:11.101Z,55.27
2023-05-22T03:17:11.084Z,55.18
2023-05-22T03:18:11.169Z,55.15
2023-05-22T03:19:11.160Z,55.19
2023-05-22T03:20:11.094Z,55.12
2023-05-22T03:21:11.079Z,55.23
2023-05-22T03:22:11.080Z,55.23
2023-05-22T03:23:11.077Z,55.29
2023-05-22T03:24:11.088Z,55.20
2023-05-22T03:25:11.096Z,55.05
2023-05-22T03:26:11.083Z,55.08
2023-05-22T03:27:11.082Z,54.95
2023-05-22T03:28:11.093Z,55.03
2023-05-22T03:29:11.165Z,54.96
2023-05-22T03:30:11.083Z,54.96
2023-05-22T03:31:13.090Z,54.94
2023-05-22T03:32:11.081Z,54.96
2023-05-22T03:33:11.132Z,54.89
2023-05-22T03:34:11.190Z,54.99
2023-05-22T03:35:11.095Z,55.01
2023-05-22T03:36:11.078Z,55.04
2023-05-22T03:37:11.093Z,54.97
2023-05-22T03:38:11.096Z,54.93
2023-05-22T03:39:11.084Z,54.95
2023-05-22T03:40:11.111Z,55.04
2023-05-22T03:41:11.092Z,55.06
2023-05-22T03:42:11.082Z,55.07
2023-05-22T03:43:11.084Z,55.02
2023-05-22T03:44:11.094Z,55.08
2023-05-22T03:45:11.101Z,55.13
2023-05-22T03:46:11.130Z,55.13
2023-05-22T03:47:11.091Z,55.10
2023-05-22T03:48:11.146Z,55.14
2023-05-22T03:49:11.086Z,55.11
2023-05-22T03:50:11.099Z,55.12
2023-05-22T03:51:11.097Z,55.10
2023-05-22T03:52:11.090Z,55.12
2023-05-22T03:53:11.090Z,55.14
2023-05-22T03:54:11.093Z,55.11
2023-05-22T03:55:11.093Z,55.15
2023-05-22T03:56:11.088Z,55.25
2023-05-22T03:57:11.082Z,55.19
2023-05-22T03:58:11.097Z,55.28
2023-05-22T03:59:11.088Z,55.22
2023-05-22T04:00:15.102Z,55.28
2023-05-22T04:01:11.070Z,55.24
2023-05-22T04:02:11.094Z,55.30
2023-05-22T04:03:11.121Z,55.35
2023-05-22T04:04:11.062Z,55.38
2023-05-22T04:05:11.099Z,55.34
2023-05-22T04:06:11.062Z,55.36
2023-05-22T04:07:12.071Z,55.34
2023-05-22T04:08:11.068Z,55.41
2023-05-22T04:09:13.072Z,55.44
2023-05-22T04:10:11.074Z,55.54
2023-05-22T04:11:11.091Z,55.53
2023-05-22T04:12:11.065Z,55.62
2023-05-22T04:13:11.064Z,55.78
2023-05-22T04:14:11.065Z,55.94
2023-05-22T04:15:11.062Z,55.94
2023-05-22T04:16:11.126Z,56.05
2023-05-22T04:17:11.066Z,56.03
2023-05-22T04:18:11.120Z,56.12
2023-05-22T04:19:11.128Z,56.31
2023-05-22T04:20:11.072Z,56.44
2023-05-22T04:21:13.079Z,56.58
2023-05-22T04:22:11.069Z,56.58
2023-05-22T04:23:11.078Z,56.63
2023-05-22T04:24:11.059Z,56.81
2023-05-22T04:25:11.074Z,56.89
2023-05-22T04:26:11.060Z,56.86
2023-05-22T04:27:11.073Z,56.89
2023-05-22T04:28:11.069Z,57.02
2023-05-22T04:29:14.066Z,57.29
2023-05-22T04:30:11.096Z,57.41
2023-05-22T04:31:11.097Z,57.45
2023-05-22T04:32:11.066Z,57.45
2023-05-22T04:33:11.088Z,57.47
2023-05-22T04:34:12.069Z,57.62
2023-05-22T04:35:11.069Z,57.62
2023-05-22T04:36:12.584Z,57.69
2023-05-22T04:37:11.069Z,57.93
2023-05-22T04:38:11.067Z,57.85
2023-05-22T04:39:11.061Z,57.85
2023-05-22T04:40:11.072Z,57.93
2023-05-22T04:41:12.070Z,58.20
2023-05-22T04:42:11.063Z,58.37
2023-05-22T04:43:11.068Z,58.21
2023-05-22T04:44:11.067Z,58.22
2023-05-22T04:45:11.072Z,58.25
2023-05-22T04:46:11.115Z,58.20
2023-05-22T04:47:11.131Z,58.16
2023-05-22T04:48:11.064Z,58.16
2023-05-22T04:49:11.074Z,58.16
2023-05-22T04:50:11.064Z,58.09
2023-05-22T04:51:11.066Z,58.13
2023-05-22T04:52:11.071Z,58.08
2023-05-22T04:53:11.076Z,58.04
2023-05-22T04:54:11.066Z,57.97
2023-05-22T04:55:11.073Z,57.99
2023-05-22T04:56:13.071Z,57.97
2023-05-22T04:57:11.077Z,57.88
2023-05-22T04:58:11.070Z,57.86
2023-05-22T04:59:12.070Z,57.91
2023-05-22T05:00:11.069Z,57.95
2023-05-22T05:01:11.154Z,57.94
2023-05-22T05:02:11.070Z,57.83
2023-05-22T05:03:11.156Z,57.80
2023-05-22T05:04:11.251Z,57.96
2023-05-22T05:05:11.070Z,57.87
2023-05-22T05:06:12.070Z,57.86
2023-05-22T05:07:11.072Z,57.79
2023-05-22T05:08:11.067Z,57.76
2023-05-22T05:09:11.072Z,57.83
2023-05-22T05:10:11.090Z,57.69
2023-05-22T05:11:11.073Z,57.74
2023-05-22T05:12:11.067Z,57.59
2023-05-22T05:13:11.078Z,57.60
2023-05-22T05:14:11.067Z,57.58
2023-05-22T05:15:11.065Z,57.55
2023-05-22T05:16:11.105Z,57.63
2023-05-22T05:17:11.073Z,57.65
2023-05-22T05:18:11.161Z,57.63
2023-05-22T05:19:11.149Z,57.74
2023-05-22T05:20:11.080Z,57.73
2023-05-22T05:21:11.071Z,57.80
2023-05-22T05:22:11.075Z,57.88
2023-05-22T05:23:11.070Z,57.89
2023-05-22T05:24:11.075Z,58.01
2023-05-22T05:25:11.907Z,58.04
2023-05-22T05:26:11.070Z,58.07
2023-05-22T05:27:11.072Z,58.09
2023-05-22T05:28:15.080Z,58.10
2023-05-22T05:29:11.073Z,58.19
2023-05-22T05:30:11.078Z,58.16
2023-05-22T05:31:11.081Z,58.24
2023-05-22T05:32:11.138Z,58.22
2023-05-22T05:33:11.117Z,58.11
2023-05-22T05:34:11.066Z,58.13
2023-05-22T05:35:11.070Z,58.11
2023-05-22T05:36:11.070Z,58.11
2023-05-22T05:37:11.070Z,58.07
2023-05-22T05:38:11.076Z,57.99
2023-05-22T05:39:11.067Z,58.00
2023-05-22T05:40:11.077Z,57.86
2023-05-22T05:41:11.080Z,57.63
2023-05-22T05:42:11.069Z,57.61
2023-05-22T05:43:11.076Z,57.67
2023-05-22T05:44:11.084Z,57.59
2023-05-22T05:45:11.076Z,57.46
2023-05-22T05:46:11.113Z,57.42
2023-05-22T05:47:11.080Z,57.30
2023-05-22T05:48:11.160Z,57.16
2023-05-22T05:49:11.077Z,57.07
2023-05-22T05:50:11.080Z,56.93
2023-05-22T05:51:11.072Z,56.91
2023-05-22T05:52:11.088Z,56.87
2023-05-22T05:53:11.089Z,56.86
2023-05-22T05:54:11.082Z,56.79
2023-05-22T05:55:11.078Z,56.72
2023-05-22T05:56:11.077Z,56.66
2023-05-22T05:57:11.080Z,56.59
2023-05-22T05:58:11.076Z,56.55
2023-05-22T05:59:11.080Z,56.54
2023-05-22T06:00:13.111Z,56.54
2023-05-22T06:01:11.083Z,56.43
2023-05-22T06:02:11.102Z,56.24
2023-05-22T06:03:11.131Z,56.21
2023-05-22T06:04:12.079Z,56.22
2023-05-22T06:05:11.111Z,56.13
2023-05-22T06:06:11.075Z,56.03
2023-05-22T06:07:11.078Z,56.05
2023-05-22T06:08:11.094Z,55.97
2023-05-22T06:09:11.078Z,55.88
2023-05-22T06:10:11.095Z,55.84
2023-05-22T06:11:11.077Z,55.85
2023-05-22T06:12:11.078Z,55.75
2023-05-22T06:13:11.090Z,55.71
2023-05-22T06:14:11.088Z,55.53
2023-05-22T06:15:11.084Z,55.47
2023-05-22T06:16:11.108Z,55.47
2023-05-22T06:17:11.094Z,55.43
2023-05-22T06:18:11.174Z,55.39
2023-05-22T06:19:11.156Z,55.41
2023-05-22T06:20:11.091Z,55.37
2023-05-22T06:21:11.082Z,55.32
2023-05-22T06:22:11.095Z,55.29
2023-05-22T06:23:11.097Z,55.28
2023-05-22T06:24:11.081Z,55.23
2023-05-22T06:25:11.089Z,55.10
2023-05-22T06:26:11.080Z,54.91
2023-05-22T06:27:11.086Z,54.86
2023-05-22T06:28:11.088Z,54.95
2023-05-22T06:29:11.083Z,54.85
2023-05-22T06:30:11.078Z,54.54
2023-05-22T06:31:11.091Z,54.32
2023-05-22T06:32:11.116Z,54.15
2023-05-22T06:33:11.149Z,54.12
2023-05-22T06:34:11.142Z,54.08
2023-05-22T06:35:11.084Z,54.05
2023-05-22T06:36:11.079Z,53.96
2023-05-22T06:37:11.083Z,53.89
2023-05-22T06:38:11.084Z,53.94
2023-05-22T06:39:11.081Z,53.91
2023-05-22T06:40:11.098Z,53.84
2023-05-22T06:41:11.093Z,53.86
2023-05-22T06:42:11.092Z,53.77
2023-05-22T06:43:11.096Z,53.69
2023-05-22T06:44:11.086Z,53.73
2023-05-22T06:45:11.096Z,53.73
2023-05-22T06:46:11.116Z,53.66
2023-05-22T06:47:11.085Z,53.63
2023-05-22T06:48:11.086Z,53.58
2023-05-22T06:49:11.102Z,53.54
2023-05-22T06:50:11.086Z,53.28
2023-05-22T06:51:11.089Z,53.13
2023-05-22T06:52:11.092Z,53.07
2023-05-22T06:53:11.085Z,52.99
2023-05-22T06:54:11.088Z,52.90
2023-05-22T06:55:11.112Z,52.73
2023-05-22T06:56:11.094Z,52.85
2023-05-22T06:57:11.098Z,52.58
2023-05-22T06:58:11.095Z,52.54
2023-05-22T06:59:11.100Z,52.53
2023-05-22T07:00:15.088Z,52.51
2023-05-22T07:01:11.102Z,52.51
2023-05-22T07:02:11.078Z,52.52
2023-05-22T07:03:11.091Z,52.47
2023-05-22T07:04:11.070Z,52.62
2023-05-22T07:05:11.069Z,52.40
2023-05-22T07:06:11.138Z,52.37
2023-05-22T07:07:11.074Z,51.96
2023-05-22T07:08:11.066Z,51.92
2023-05-22T07:09:11.124Z,51.93
2023-05-22T07:10:11.073Z,51.84
2023-05-22T07:11:11.064Z,51.82
2023-05-22T07:12:11.069Z,51.67
2023-05-22T07:13:11.097Z,51.57
2023-05-22T07:14:11.065Z,51.54
2023-05-22T07:15:11.068Z,51.42
2023-05-22T07:16:11.102Z,51.46
2023-05-22T07:17:11.072Z,51.37
2023-05-22T07:18:11.098Z,51.25
2023-05-22T07:19:13.122Z,51.23
2023-05-22T07:20:11.073Z,50.94
2023-05-22T07:21:11.074Z,50.75
2023-05-22T07:22:11.080Z,50.58
2023-05-22T07:23:11.064Z,50.47
2023-05-22T07:24:13.068Z,50.31
2023-05-22T07:25:11.087Z,50.25
2023-05-22T07:26:11.069Z,50.27
2023-05-22T07:27:11.071Z,50.25
2023-05-22T07:28:12.075Z,50.13
2023-05-22T07:29:11.078Z,50.00
2023-05-22T07:30:11.074Z,49.95
2023-05-22T07:31:11.099Z,49.95
2023-05-22T07:32:11.064Z,49.85
2023-05-22T07:33:11.130Z,49.78
2023-05-22T07:34:11.079Z,49.66
2023-05-22T07:35:11.072Z,49.62
2023-05-22T07:36:11.072Z,49.55
2023-05-22T07:37:11.083Z,49.33
2023-05-22T07:38:11.068Z,49.19
2023-05-22T07:39:11.069Z,49.12
2023-05-22T07:40:11.081Z,49.30
2023-05-22T07:41:11.069Z,49.02
2023-05-22T07:42:11.074Z,48.91
2023-05-22T07:43:11.088Z,48.92
2023-05-22T07:44:11.067Z,48.90
2023-05-22T07:45:11.067Z,48.88
2023-05-22T07:46:11.101Z,48.84
2023-05-22T07:47:11.067Z,48.82
2023-05-22T07:48:11.097Z,48.70
2023-05-22T07:49:11.083Z,48.58
2023-05-22T07:50:11.150Z,48.69
2023-05-22T07:51:11.077Z,48.66
2023-05-22T07:52:11.087Z,48.77
2023-05-22T07:53:11.070Z,48.79
2023-05-22T07:54:11.070Z,48.84
2023-05-22T07:55:11.082Z,48.90
2023-05-22T07:56:11.069Z,49.07
2023-05-22T07:57:11.069Z,49.23
2023-05-22T07:58:11.071Z,49.14
2023-05-22T07:59:11.067Z,49.27
2023-05-22T08:00:13.560Z,49.31
2023-05-22T08:01:11.077Z,49.27
2023-05-22T08:02:12.104Z,49.31
2023-05-22T08:03:11.418Z,49.24
2023-05-22T08:04:11.256Z,49.26
2023-05-22T08:05:11.133Z,49.28
2023-05-22T08:06:11.084Z,49.19
2023-05-22T08:07:11.073Z,49.29
2023-05-22T08:08:11.076Z,49.19
2023-05-22T08:09:11.091Z,49.07
2023-05-22T08:10:15.071Z,48.82
2023-05-22T08:11:11.235Z,48.46
2023-05-22T08:12:11.077Z,48.14
2023-05-22T08:13:11.073Z,48.10
2023-05-22T08:14:12.071Z,48.05
2023-05-22T08:15:11.068Z,48.15
2023-05-22T08:16:11.080Z,48.06
2023-05-22T08:17:11.113Z,47.98
2023-05-22T08:18:11.087Z,48.00
2023-05-22T08:19:13.154Z,47.86
2023-05-22T08:20:11.213Z,47.80
2023-05-22T08:21:11.079Z,47.68
2023-05-22T08:22:11.072Z,47.70
2023-05-22T08:23:11.070Z,47.49
2023-05-22T08:24:11.069Z,47.51
2023-05-22T08:25:11.102Z,47.32
2023-05-22T08:26:11.074Z,47.23
2023-05-22T08:27:11.072Z,47.05
2023-05-22T08:28:11.073Z,47.06
2023-05-22T08:29:11.070Z,47.11
2023-05-22T08:30:11.079Z,47.01
2023-05-22T08:31:11.078Z,46.91
2023-05-22T08:32:11.086Z,46.73
2023-05-22T08:33:11.100Z,46.67
2023-05-22T08:34:11.073Z,46.76
2023-05-22T08:35:11.072Z,46.59
2023-05-22T08:36:11.086Z,46.71
2023-05-22T08:37:11.074Z,46.83
2023-05-22T08:38:11.077Z,46.56
2023-05-22T08:39:11.079Z,46.68
2023-05-22T08:40:13.079Z,46.58
2023-05-22T08:41:11.074Z,46.69
2023-05-22T08:42:11.073Z,46.51
2023-05-22T08:43:11.082Z,46.54
2023-05-22T08:44:11.086Z,46.12
2023-05-22T08:45:11.078Z,46.08
2023-05-22T08:46:12.074Z,45.87
2023-05-22T08:47:13.168Z,45.84
2023-05-22T08:48:16.079Z,45.81
2023-05-22T08:49:13.078Z,45.65
2023-05-22T08:50:11.078Z,45.56
2023-05-22T08:51:12.079Z,45.68
2023-05-22T08:52:21.076Z,45.38
2023-05-22T08:53:12.072Z,45.24
2023-05-22T08:54:13.078Z,45.20
2023-05-22T08:55:11.082Z,44.94
2023-05-22T08:56:11.078Z,44.87
2023-05-22T08:57:11.076Z,44.88
2023-05-22T08:58:11.079Z,44.81
2023-05-22T08:59:11.082Z,44.78
2023-05-22T09:00:11.076Z,44.62
2023-05-22T09:01:13.147Z,44.80
2023-05-22T09:02:12.075Z,44.95
2023-05-22T09:03:11.119Z,44.87
2023-05-22T09:04:11.100Z,44.46
2023-05-22T09:05:11.080Z,44.21
2023-05-22T09:06:13.091Z,44.21
2023-05-22T09:07:11.082Z,44.03
2023-05-22T09:08:19.878Z,44.09
2023-05-22T09:09:13.341Z,43.72
2023-05-22T09:10:11.079Z,43.62
2023-05-22T09:11:11.083Z,44.05
2023-05-22T09:12:11.079Z,43.78
2023-05-22T09:13:11.085Z,43.78
2023-05-22T09:14:11.083Z,43.70
2023-05-22T09:15:13.089Z,43.51
2023-05-22T09:16:11.082Z,43.55
2023-05-22T09:17:15.156Z,43.68
2023-05-22T09:18:11.096Z,43.49
2023-05-22T09:19:11.111Z,43.16
2023-05-22T09:20:12.090Z,43.02
2023-05-22T09:21:25.964Z,42.99
2023-05-22T09:22:15.064Z,42.60
2023-05-22T09:23:15.102Z,42.30
2023-05-22T09:24:11.099Z,42.10
2023-05-22T09:25:15.089Z,42.20
2023-05-22T09:26:11.097Z,41.80
2023-05-22T09:27:11.122Z,41.72
2023-05-22T09:28:13.088Z,41.69
2023-05-22T09:29:11.089Z,41.85
2023-05-22T09:30:11.090Z,41.58
2023-05-22T09:31:11.144Z,41.31
2023-05-22T09:32:15.109Z,41.24
2023-05-22T09:33:14.107Z,41.35
2023-05-22T09:34:11.118Z,41.66
2023-05-22T09:35:11.099Z,41.62
2023-05-22T09:36:11.102Z,41.81
2023-05-22T09:37:11.097Z,42.10
2023-05-22T09:38:12.269Z,42.14
2023-05-22T09:39:11.135Z,42.12
2023-05-22T09:40:12.089Z,42.09
2023-05-22T09:41:11.090Z,42.18
2023-05-22T09:42:11.102Z,42.07
2023-05-22T09:43:13.107Z,42.20
2023-05-22T09:44:15.094Z,42.34
2023-05-22T09:45:11.104Z,42.43
2023-05-22T09:46:15.148Z,42.02
2023-05-22T09:47:11.101Z,42.07
2023-05-22T09:48:11.099Z,42.15
2023-05-22T09:49:12.681Z,42.44
2023-05-22T09:50:11.101Z,42.25
2023-05-22T09:51:11.098Z,42.60
2023-05-22T09:52:11.092Z,42.86
2023-05-22T09:53:11.087Z,43.10
2023-05-22T09:54:11.093Z,43.11
2023-05-22T09:55:11.093Z,42.96
2023-05-22T09:56:13.307Z,43.09
2023-05-22T09:57:13.100Z,43.17
2023-05-22T09:58:13.095Z,43.19
2023-05-22T09:59:11.095Z,43.42
2023-05-22T10:00:14.103Z,43.41
2023-05-22T10:01:12.155Z,43.73
2023-05-22T10:02:11.220Z,43.82
2023-05-22T10:03:11.067Z,43.89
2023-05-22T10:04:12.179Z,43.93
2023-05-22T10:05:11.066Z,43.92
2023-05-22T10:06:11.071Z,43.57
2023-05-22T10:07:12.077Z,43.69
2023-05-22T10:08:13.082Z,43.76
2023-05-22T10:09:16.312Z,44.08
2023-05-22T10:10:11.076Z,44.21
2023-05-22T10:11:11.084Z,44.24
2023-05-22T10:12:11.072Z,44.38
2023-05-22T10:13:13.087Z,44.31
2023-05-22T10:14:11.071Z,43.96
2023-05-22T10:15:11.071Z,43.82
2023-05-22T10:16:11.163Z,43.90
2023-05-22T10:17:11.077Z,44.31
2023-05-22T10:18:11.128Z,44.40
2023-05-22T10:19:11.109Z,44.55
2023-05-22T10:20:11.081Z,44.79
2023-05-22T10:21:11.075Z,44.88
2023-05-22T10:22:11.079Z,44.89
2023-05-22T10:23:11.081Z,44.96
2023-05-22T10:24:11.088Z,45.21
2023-05-22T10:25:11.131Z,45.18
2023-05-22T10:26:11.072Z,45.36
2023-05-22T10:27:11.078Z,45.30
2023-05-22T10:28:11.087Z,45.36
2023-05-22T10:29:14.071Z,45.59
2023-05-22T10:30:19.100Z,45.60
2023-05-22T10:31:22.084Z,45.75
2023-05-22T10:32:19.077Z,45.68
2023-05-22T10:33:17.175Z,45.43
2023-05-22T10:34:12.100Z,45.62
2023-05-22T10:35:20.081Z,45.78
2023-05-22T10:36:13.089Z,45.68
2023-05-22T10:37:25.075Z,45.84
2023-05-22T10:38:22.085Z,45.75
2023-05-22T10:39:22.077Z,45.72
2023-05-22T10:40:17.081Z,45.65
2023-05-22T10:41:11.085Z,45.49
2023-05-22T10:42:15.077Z,45.50
2023-05-22T10:43:11.081Z,45.49
2023-05-22T10:44:11.076Z,45.27
2023-05-22T10:45:11.092Z,45.33
2023-05-22T10:46:12.169Z,45.23
2023-05-22T10:47:13.086Z,45.25
2023-05-22T10:48:11.078Z,45.57
2023-05-22T10:49:15.076Z,45.30
2023-05-22T10:50:13.093Z,45.19
2023-05-22T10:51:11.085Z,44.98
2023-05-22T10:52:11.080Z,44.90
2023-05-22T10:53:19.080Z,44.96
2023-05-22T10:54:11.090Z,44.85
2023-05-22T10:55:11.078Z,44.81
2023-05-22T10:56:14.086Z,44.79
2023-05-22T10:57:16.096Z,44.76
2023-05-22T10:58:15.083Z,44.86
2023-05-22T10:59:11.098Z,44.92
2023-05-22T11:00:15.085Z,44.71
2023-05-22T11:01:19.159Z,44.51
2023-05-22T11:02:19.242Z,44.59
2023-05-22T11:03:17.607Z,44.60
2023-05-22T11:04:16.255Z,44.52
2023-05-22T11:05:25.094Z,44.84
2023-05-22T11:06:19.084Z,44.70
2023-05-22T11:07:11.091Z,44.61
2023-05-22T11:08:19.436Z,44.50
2023-05-22T11:09:21.102Z,44.59
2023-05-22T11:10:11.091Z,44.46
2023-05-22T11:11:14.083Z,44.32
2023-05-22T11:12:19.092Z,44.14
2023-05-22T11:13:13.093Z,44.01
2023-05-22T11:14:16.086Z,43.67
2023-05-22T11:15:11.100Z,43.01
2023-05-22T11:16:11.088Z,42.91
2023-05-22T11:17:12.178Z,42.89
2023-05-22T11:18:11.159Z,42.61
2023-05-22T11:19:22.713Z,42.40
2023-05-22T11:20:21.126Z,41.81
2023-05-22T11:21:11.085Z,41.59
2023-05-22T11:22:11.085Z,41.64
2023-05-22T11:23:11.095Z,41.84
2023-05-22T11:24:11.102Z,42.10
2023-05-22T11:25:11.083Z,42.41
2023-05-22T11:26:19.101Z,42.34
2023-05-22T11:27:11.098Z,42.45
2023-05-22T11:28:11.085Z,42.60
2023-05-22T11:29:11.087Z,42.65
2023-05-22T11:30:11.093Z,42.62
2023-05-22T11:31:11.135Z,42.63
2023-05-22T11:32:11.092Z,42.35
2023-05-22T11:33:11.119Z,41.92
2023-05-22T11:34:12.100Z,41.78
2023-05-22T11:35:15.090Z,41.37
2023-05-22T11:36:11.097Z,41.26
2023-05-22T11:37:11.090Z,41.11
2023-05-22T11:38:11.100Z,41.40
2023-05-22T11:39:14.129Z,40.74
2023-05-22T11:40:11.115Z,40.63
2023-05-22T11:41:13.117Z,40.62
2023-05-22T11:42:11.095Z,40.37
2023-05-22T11:43:11.116Z,40.22
2023-05-22T11:44:11.091Z,39.91
2023-05-22T11:45:11.099Z,39.56
2023-05-22T11:46:11.126Z,39.31
2023-05-22T11:47:11.097Z,39.02
2023-05-22T11:48:12.769Z,38.79
2023-05-22T11:49:13.118Z,38.84
2023-05-22T11:50:11.139Z,38.59
2023-05-22T11:51:11.100Z,38.46
2023-05-22T11:52:13.094Z,38.11
2023-05-22T11:53:11.102Z,38.11
2023-05-22T11:54:11.095Z,38.08
2023-05-22T11:55:11.105Z,38.23
2023-05-22T11:56:11.092Z,37.36
2023-05-22T11:57:11.105Z,37.46
2023-05-22T11:58:11.108Z,37.28
2023-05-22T11:59:11.090Z,37.41
2023-05-22T12:00:11.186Z,36.62
2023-05-22T12:01:11.092Z,36.65
2023-05-22T12:02:11.118Z,36.69
2023-05-22T12:03:11.185Z,36.45
2023-05-22T12:04:11.216Z,36.33
2023-05-22T12:05:11.088Z,36.37
2023-05-22T12:06:11.183Z,36.14
2023-05-22T12:07:11.092Z,35.91
2023-05-22T12:08:11.092Z,35.70
2023-05-22T12:09:11.091Z,35.57
2023-05-22T12:10:11.268Z,35.47
2023-05-22T12:11:13.092Z,35.55
2023-05-22T12:12:13.096Z,35.12
2023-05-22T12:13:11.091Z,35.24
2023-05-22T12:14:13.119Z,35.32
2023-05-22T12:15:11.092Z,35.44
2023-05-22T12:16:18.129Z,35.43
2023-05-22T12:17:11.095Z,35.71
2023-05-22T12:18:11.148Z,35.66
2023-05-22T12:19:11.120Z,35.82
2023-05-22T12:20:14.100Z,35.83
2023-05-22T12:21:11.097Z,35.97
2023-05-22T12:22:11.093Z,36.18
2023-05-22T12:23:17.095Z,36.14
2023-05-22T12:24:11.092Z,36.06
2023-05-22T12:25:15.105Z,36.26
2023-05-22T12:26:11.095Z,36.33
2023-05-22T12:27:11.103Z,36.37
2023-05-22T12:28:11.100Z,36.36
2023-05-22T12:29:11.095Z,36.52
2023-05-22T12:30:11.121Z,36.60
2023-05-22T12:31:11.091Z,36.80
2023-05-22T12:32:11.251Z,37.04
2023-05-22T12:33:15.319Z,36.74
2023-05-22T12:34:11.100Z,36.38
2023-05-22T12:35:17.297Z,36.53
2023-05-22T12:36:11.106Z,36.56
2023-05-22T12:37:17.094Z,36.46
2023-05-22T12:38:11.101Z,36.40
2023-05-22T12:39:11.117Z,36.48
2023-05-22T12:40:11.121Z,36.70
2023-05-22T12:41:11.098Z,36.35
2023-05-22T12:42:11.102Z,36.41
2023-05-22T12:43:11.099Z,36.74
2023-05-22T12:44:11.102Z,36.79
2023-05-22T12:45:11.110Z,36.63
2023-05-22T12:46:11.135Z,36.33
2023-05-22T12:47:11.107Z,36.33
2023-05-22T12:48:11.140Z,36.34
2023-05-22T12:49:11.095Z,36.54
2023-05-22T12:50:11.100Z,36.95
2023-05-22T12:51:11.137Z,36.80
2023-05-22T12:52:11.109Z,37.17